This is the latest recevied weather packets stored in our database for station/object KU4DD. If no packets are shown the sender has not sent any weather packets the latest 10 day(s).
| Time | Temp. | Humidity | Pressure | Rain* | Wind** | Luminosity | Snow |
|---|---|---|---|---|---|---|---|
| 1787520290 | 32.78° C | 41% | 1012.9 hPa | 0 mm | - | 371 W/m² | - |
| 1787519970 | 32.78° C | 39% | 1012.5 hPa | 0 mm | - | 422 W/m² | - |
| 1787519016 | 32.78° C | 43% | 1012.9 hPa | 0 mm | - | 538 W/m² | - |
| 1787517482 | 32.78° C | 40% | 1012.9 hPa | 0 mm | - | 649 W/m² | - |
| 1787517168 | 32.22° C | 42% | 1012.9 hPa | 0 mm | - | 680 W/m² | - |
| 1787515330 | 31.11° C | 50% | 1012.9 hPa | 0 mm | - | 803 W/m² | - |
| 1787512890 | 32.22° C | 49% | 1012.9 hPa | 0 mm | - | 967 W/m² | - |
| 1787509550 | 32.22° C | 49% | 1013.2 hPa | 0 mm | - | 933 W/m² | - |
| 1787507720 | 32.22° C | 51% | 1013.5 hPa | 0 mm | - | 947 W/m² | - |
| 1787489413 | 23.33° C | 97% | 1013.9 hPa | 0 mm | - | 181 W/m² | - |
| 1787486672 | 22.22° C | 97% | 1013.9 hPa | 0.25 mm | - | 81 W/m² | - |
| 1787484850 | 22.22° C | 98% | 1013.5 hPa | 0.25 mm | - | 90 W/m² | - |
| 1787476952 | 21.67° C | 97% | 1011.5 hPa | 0 mm | - | 0 W/m² | - |
| 1787475720 | 21.67° C | 97% | 1011.9 hPa | 0 mm | - | 0 W/m² | - |
| 1787473578 | 21.67° C | 97% | 1011.9 hPa | 0 mm | - | 0 W/m² | - |
| 1787471456 | 22.22° C | 97% | 1011.9 hPa | 0 mm | - | 0 W/m² | - |
| 1787470521 | 22.22° C | 97% | 1011.9 hPa | 0 mm | - | 0 W/m² | - |
| 1787469898 | 22.22° C | 97% | 1011.5 hPa | 0 mm | - | 0 W/m² | - |
| 1787465036 | 22.78° C | 96% | 1012.2 hPa | 0 mm | - | 0 W/m² | - |
| 1787464419 | 22.78° C | 96% | 1012.5 hPa | 0 mm | - | 0 W/m² | - |
| 1787463806 | 22.78° C | 95% | 1012.9 hPa | 0 mm | - | 0 W/m² | - |
| 1787463494 | 22.78° C | 96% | 1012.9 hPa | 0 mm | - | 0 W/m² | - |
| 1787462570 | 22.78° C | 95% | 1013.2 hPa | 0 mm | - | 0 W/m² | - |
| 1787459536 | 23.33° C | 95% | 1013.5 hPa | 0 mm | - | 0 W/m² | - |
| 1787456788 | 23.33° C | 95% | 1013.9 hPa | 0 mm | - | 0 W/m² | - |
* Rain latest hour (hover to see other rain measurements)
** Current wind speed in m/s (hover to see current wind gust speed)